Time;durP1;ratioP1;P1;durP2;ratioP2;P2;SDS_P1;SDS_P2;PMS_P1;PMS_P2;Temp;Humidity;BMP_temperature;BMP_pressure;BME280_temperature;BME280_humidity;BME280_pressure;Samples;Min_cycle;Max_cycle;Signal;HPM_P1;HPM_P2
2023/03/28 00:00:48;;;;;;;;;;;;;;;13.08;63.33;102311.44;1039642;28;1298;-69
2023/03/28 00:01:39;;;;;;;;;;;;;;;13.08;63.89;102308.78;1041733;28;1296;-67
2023/03/28 00:02:29;;;;;;;;;;;;;;;13.05;62.97;102306.28;1041087;28;1455;-67
2023/03/28 00:03:21;;;;;;;;;;;;;;;13.05;62.96;102306.28;1043748;28;1554;-67
2023/03/28 00:04:11;;;;;;;;;;;;;;;13.05;63.43;102309.81;1044553;28;691;-67
2023/03/28 00:05:03;;;;;;;;;;;;;;;13.08;63.70;102308.78;1044941;28;1177;-65
2023/03/28 00:05:55;;;;;;;;;;;;;;;13.06;63.91;102302.66;1043766;28;1476;-67
2023/03/28 00:06:46;;;;;;;;;;;;;;;13.05;62.94;102306.28;1044062;28;1468;-67
2023/03/28 00:07:37;;;;;;;;;;;;;;;13.06;63.31;102314.22;1043974;28;1400;-67
2023/03/28 00:08:27;;;;;;;;;;;;;;;13.03;63.38;102308.16;1043176;28;1536;-67
2023/03/28 00:09:18;;;;;;;;;;;;;;;13.02;63.14;102311.78;1044064;28;1321;-67
2023/03/28 00:10:08;;;;;;;;;;;;;;;13.05;63.96;102308.97;1041099;28;1377;-66
2023/03/28 00:10:59;;;;;;;;;;;;;;;13.00;63.67;102313.69;1042887;28;1480;-67
2023/03/28 00:11:49;;;;;;;;;;;;;;;13.02;62.99;102315.34;1041510;28;1433;-67
2023/03/28 00:12:40;;;;;;;;;;;;;;;13.04;63.46;102316.13;1043610;28;1351;-67
2023/03/28 00:13:30;;;;;;;;;;;;;;;13.02;63.03;102318.00;1044643;28;677;-67
2023/03/28 00:14:20;;;;;;;;;;;;;;;13.04;63.51;102315.25;1044654;28;771;-68
2023/03/28 00:15:11;;;;;;;;;;;;;;;13.00;64.00;102316.34;1044218;28;916;-67
2023/03/28 00:16:02;;;;;;;;;;;;;;;13.02;63.11;102317.13;1041005;28;1348;-67
2023/03/28 00:16:53;;;;;;;;;;;;;;;13.02;63.52;102322.50;1042664;28;1301;-67
2023/03/28 00:17:43;;;;;;;;;;;;;;;13.02;63.21;102319.81;1041514;28;1427;-67
2023/03/28 00:18:37;;;;;;;;;;;;;;;13.00;63.16;102319.88;1042544;28;1173;-67
2023/03/28 00:19:31;;;;;;;;;;;;;;;12.99;63.42;102317.28;1039924;28;1523;-67
2023/03/28 00:20:22;;;;;;;;;;;;;;;13.03;63.70;102321.53;1043538;28;1252;-67
2023/03/28 00:21:12;;;;;;;;;;;;;;;13.01;63.57;102321.63;1044027;28;1913;-67
2023/03/28 00:22:03;;;;;;;;;;;;;;;13.01;63.32;102321.63;1044293;28;1423;-67
2023/03/28 00:22:53;;;;;;;;;;;;;;;12.97;63.38;102322.72;1041080;28;654;-67
2023/03/28 00:23:44;;;;;;;;;;;;;;;12.98;63.55;102323.59;1043586;28;645;-67
2023/03/28 00:24:37;;;;;;;;;;;;;;;12.98;64.02;102318.22;1044936;28;1011;-67
2023/03/28 00:25:28;;;;;;;;;;;;;;;13.00;63.76;102319.88;1044611;28;777;-67
2023/03/28 00:26:18;;;;;;;;;;;;;;;13.00;64.04;102316.34;1044198;28;1350;-68
2023/03/28 00:27:09;;;;;;;;;;;;;;;12.98;63.94;102323.59;1042292;28;1491;-67
2023/03/28 00:28:00;;;;;;;;;;;;;;;12.97;63.70;102314.69;1041305;28;1345;-67
2023/03/28 00:28:52;;;;;;;;;;;;;;;12.96;63.21;102320.13;1041322;28;1479;-67
2023/03/28 00:29:42;;;;;;;;;;;;;;;12.93;64.00;102322.94;1040118;28;1274;-67
2023/03/28 00:30:33;;;;;;;;;;;;;;;12.93;64.16;102317.59;1043661;28;1485;-67
2023/03/28 00:31:23;;;;;;;;;;;;;;;12.94;63.32;102319.34;1040097;28;1303;-67
2023/03/28 00:32:14;;;;;;;;;;;;;;;12.93;63.75;102322.94;1044270;28;1460;-67
2023/03/28 00:33:05;;;;;;;;;;;;;;;12.92;64.29;102322.09;1042847;28;1291;-67
2023/03/28 00:33:55;;;;;;;;;;;;;;;12.88;64.22;102323.22;1044552;28;1490;-68
2023/03/28 00:34:45;;;;;;;;;;;;;;;12.91;63.91;102319.47;1045040;28;1081;-68
2023/03/28 00:35:36;;;;;;;;;;;;;;;12.95;64.33;102321.06;1045331;28;714;-68
2023/03/28 00:36:28;;;;;;;;;;;;;;;12.97;63.51;102320.03;1043504;28;1290;-68
2023/03/28 00:37:19;;;;;;;;;;;;;;;12.93;63.35;102323.81;1041727;28;1386;-68
2023/03/28 00:38:12;;;;;;;;;;;;;;;12.95;64.27;102321.06;1045201;28;841;-68
2023/03/28 00:39:05;;;;;;;;;;;;;;;12.94;63.39;102319.34;1045358;28;649;-68
2023/03/28 00:39:55;;;;;;;;;;;;;;;12.95;64.14;102321.06;1042320;28;932;-67
2023/03/28 00:40:47;;;;;;;;;;;;;;;12.95;63.22;102321.06;1041710;28;1396;-68
2023/03/28 00:41:41;;;;;;;;;;;;;;;12.96;64.04;102320.13;1043814;28;1227;-68
2023/03/28 00:42:31;;;;;;;;;;;;;;;12.94;63.53;102316.66;1043562;28;1191;-68
2023/03/28 00:43:22;;;;;;;;;;;;;;;12.97;63.32;102324.53;1044027;28;1343;-67
2023/03/28 00:44:12;;;;;;;;;;;;;;;12.97;64.21;102319.19;1041075;28;1455;-67
2023/03/28 00:45:03;;;;;;;;;;;;;;;12.94;64.21;102319.34;1041641;28;1290;-68
2023/03/28 00:45:53;;;;;;;;;;;;;;;12.91;63.83;102315.00;1041449;28;1455;-68
2023/03/28 00:46:43;;;;;;;;;;;;;;;12.91;63.76;102325.69;1042571;28;1397;-67
2023/03/28 00:47:35;;;;;;;;;;;;;;;12.92;63.17;102319.41;1041571;28;993;-67
2023/03/28 00:48:26;;;;;;;;;;;;;;;12.88;64.32;102323.22;1045009;28;937;-67
2023/03/28 00:49:16;;;;;;;;;;;;;;;12.88;64.00;102317.00;1043111;28;1565;-67
2023/03/28 00:50:07;;;;;;;;;;;;;;;12.86;63.47;102317.06;1042162;28;1297;-67
2023/03/28 00:51:02;;;;;;;;;;;;;;;12.88;64.38;102312.50;1043218;28;1522;-67
2023/03/28 00:51:53;;;;;;;;;;;;;;;12.86;63.76;102315.25;1041337;28;1400;-67
2023/03/28 00:52:43;;;;;;;;;;;;;;;12.84;64.50;102317.13;1044946;28;641;-68
2023/03/28 00:53:35;;;;;;;;;;;;;;;12.82;63.76;102316.34;1043829;28;1529;-67
2023/03/28 00:54:25;;;;;;;;;;;;;;;12.81;64.32;102311.94;1045219;28;684;-68
2023/03/28 00:55:16;;;;;;;;;;;;;;;12.84;64.52;102309.13;1043945;28;1364;-67
2023/03/28 00:56:06;;;;;;;;;;;;;;;12.84;63.47;102313.59;1042004;28;1226;-67
2023/03/28 00:56:56;;;;;;;;;;;;;;;12.84;64.19;102310.94;1041925;28;1269;-67
2023/03/28 00:57:47;;;;;;;;;;;;;;;12.83;63.62;102311.88;1043373;28;1400;-67
2023/03/28 00:58:37;;;;;;;;;;;;;;;12.84;63.48;102317.13;1041718;28;649;-67
2023/03/28 00:59:28;;;;;;;;;;;;;;;12.83;63.71;102310.06;1042619;28;948;-67
2023/03/28 01:00:19;;;;;;;;;;;;;;;12.84;64.38;102310.94;1044324;28;1603;-67
2023/03/28 01:01:10;;;;;;;;;;;;;;;12.83;64.42;102315.41;1043698;28;1905;-68
2023/03/28 01:02:00;;;;;;;;;;;;;;;12.84;63.54;102318.94;1045067;28;1464;-68
2023/03/28 01:02:51;;;;;;;;;;;;;;;12.83;64.09;102317.22;1042040;28;1309;-68
2023/03/28 01:03:45;;;;;;;;;;;;;;;12.82;64.20;102315.47;1043849;28;1389;-67
2023/03/28 01:04:35;;;;;;;;;;;;;;;12.83;63.86;102318.09;1041717;28;629;-67
2023/03/28 01:05:25;;;;;;;;;;;;;;;12.87;64.12;102316.13;1042795;28;1130;-67
2023/03/28 01:06:16;;;;;;;;;;;;;;;12.83;63.89;102311.88;1041730;28;641;-67
2023/03/28 01:07:06;;;;;;;;;;;;;;;12.82;64.56;102307.47;1045060;28;1066;-68
2023/03/28 01:07:57;;;;;;;;;;;;;;;12.83;63.41;102314.53;1041809;28;708;-66
2023/03/28 01:08:47;;;;;;;;;;;;;;;12.85;64.31;102308.16;1043159;28;1414;-67
2023/03/28 01:09:38;;;;;;;;;;;;;;;12.82;63.98;102300.28;1041232;28;1299;-67
2023/03/28 01:10:28;;;;;;;;;;;;;;;12.81;63.61;102309.25;1039827;28;1395;-67
2023/03/28 01:11:19;;;;;;;;;;;;;;;12.81;63.71;102309.25;1041283;28;1477;-67
2023/03/28 01:12:09;;;;;;;;;;;;;;;12.82;63.46;102307.47;1044191;28;1333;-67
2023/03/28 01:13:00;;;;;;;;;;;;;;;12.84;63.52;102311.78;1042810;28;1316;-68
2023/03/28 01:13:50;;;;;;;;;;;;;;;12.83;64.43;102307.38;1042450;28;1228;-68
2023/03/28 01:14:42;;;;;;;;;;;;;;;12.82;63.62;102302.09;1043738;28;1472;-68
2023/03/28 01:15:32;;;;;;;;;;;;;;;12.79;64.04;102305.78;1042235;28;1350;-68
2023/03/28 01:16:23;;;;;;;;;;;;;;;12.79;63.65;102312.97;1044611;28;1516;-68
2023/03/28 01:17:14;;;;;;;;;;;;;;;12.78;64.40;102306.75;1041660;28;1420;-67
2023/03/28 01:18:10;;;;;;;;;;;;;;;12.80;63.52;102307.53;1042089;28;1424;-68
2023/03/28 01:19:03;;;;;;;;;;;;;;;12.77;64.49;102302.34;1045184;28;629;-68
2023/03/28 01:19:57;;;;;;;;;;;;;;;12.75;64.44;102306.88;1044115;28;663;-68
2023/03/28 01:20:48;;;;;;;;;;;;;;;12.72;63.94;102308.88;1043021;28;1202;-67
2023/03/28 01:21:38;;;;;;;;;;;;;;;12.72;64.62;102306.22;1042310;28;1453;-68
2023/03/28 01:22:29;;;;;;;;;;;;;;;12.74;63.95;102305.16;1041403;28;1271;-68
2023/03/28 01:23:19;;;;;;;;;;;;;;;12.76;63.71;102305.94;1044509;28;1326;-67
2023/03/28 01:24:10;;;;;;;;;;;;;;;12.74;63.79;102307.84;1045318;28;648;-68
2023/03/28 01:25:00;;;;;;;;;;;;;;;12.74;64.32;102306.97;1041707;28;621;-68
2023/03/28 01:25:51;;;;;;;;;;;;;;;12.75;64.25;102301.53;1041542;28;641;-68
2023/03/28 01:26:41;;;;;;;;;;;;;;;12.70;64.46;102306.28;1043576;28;1015;-68
2023/03/28 01:27:31;;;;;;;;;;;;;;;12.70;64.78;102308.97;1044535;28;1371;-68
2023/03/28 01:28:22;;;;;;;;;;;;;;;12.71;64.42;102301.78;1042502;28;1290;-68
2023/03/28 01:29:13;;;;;;;;;;;;;;;12.73;63.73;102299.88;1042398;28;637;-68
2023/03/28 01:30:03;;;;;;;;;;;;;;;12.69;64.30;102296.53;1041604;28;688;-68
2023/03/28 01:30:55;;;;;;;;;;;;;;;12.68;64.84;102308.16;1041826;28;1290;-67
2023/03/28 01:31:45;;;;;;;;;;;;;;;12.70;64.41;102300.94;1043877;28;1387;-68
2023/03/28 01:32:36;;;;;;;;;;;;;;;12.70;63.71;102295.59;1043547;28;1343;-67
2023/03/28 01:33:26;;;;;;;;;;;;;;;12.68;63.95;102297.47;1040989;28;1262;-67
2023/03/28 01:34:17;;;;;;;;;;;;;;;12.70;64.54;102292.91;1043481;28;1273;-67
2023/03/28 01:35:07;;;;;;;;;;;;;;;12.65;64.82;102297.63;1045138;28;700;-67
2023/03/28 01:35:58;;;;;;;;;;;;;;;12.63;64.28;102293.28;1041541;28;1512;-67
2023/03/28 01:36:48;;;;;;;;;;;;;;;12.66;64.88;102299.34;1043699;28;1420;-69
2023/03/28 01:37:39;;;;;;;;;;;;;;;12.65;64.92;102294.94;1040909;28;1103;-69
2023/03/28 01:38:30;;;;;;;;;;;;;;;12.67;63.85;102298.41;1040576;28;709;-68
2023/03/28 01:39:20;;;;;;;;;;;;;;;12.70;63.98;102294.72;1041463;28;1051;-68
2023/03/28 01:40:11;;;;;;;;;;;;;;;12.70;63.86;102295.59;1040827;28;1428;-68
2023/03/28 01:41:01;;;;;;;;;;;;;;;12.70;64.00;102287.56;1040922;28;1898;-68
2023/03/28 01:41:52;;;;;;;;;;;;;;;12.71;63.93;102294.63;1043816;28;1414;-68
2023/03/28 01:42:42;;;;;;;;;;;;;;;12.71;64.62;102289.28;1044216;28;1345;-68
2023/03/28 01:43:32;;;;;;;;;;;;;;;12.71;64.69;102289.28;1041846;28;1445;-67
2023/03/28 01:44:23;;;;;;;;;;;;;;;12.69;63.80;102290.31;1042961;28;1284;-68
2023/03/28 01:45:14;;;;;;;;;;;;;;;12.70;63.77;102297.38;1042260;28;1435;-68
2023/03/28 01:46:04;;;;;;;;;;;;;;;12.71;63.56;102285.75;1039567;28;1609;-68
2023/03/28 01:46:55;;;;;;;;;;;;;;;12.72;64.12;102292.84;1042210;28;637;-68
2023/03/28 01:47:45;;;;;;;;;;;;;;;12.73;63.65;102290.06;1044066;28;1221;-67
2023/03/28 01:48:36;;;;;;;;;;;;;;;12.73;64.22;102291.84;1043688;28;1495;-67
2023/03/28 01:49:26;;;;;;;;;;;;;;;12.74;64.04;102286.44;1041034;28;1356;-67
2023/03/28 01:50:17;;;;;;;;;;;;;;;12.73;64.31;102284.69;1043886;28;1206;-68
2023/03/28 01:51:07;;;;;;;;;;;;;;;12.73;63.76;102283.84;1044688;28;1546;-67
2023/03/28 01:51:57;;;;;;;;;;;;;;;12.72;64.32;102282.97;1041491;28;754;-67
2023/03/28 01:52:48;;;;;;;;;;;;;;;12.68;64.37;102286.78;1041154;28;1463;-67
2023/03/28 01:53:38;;;;;;;;;;;;;;;12.69;63.93;102284.97;1041910;28;905;-67
2023/03/28 01:54:29;;;;;;;;;;;;;;;12.68;64.68;102285.91;1040981;28;1502;-68
2023/03/28 01:55:19;;;;;;;;;;;;;;;12.68;63.92;102280.56;1041534;28;1548;-68
2023/03/28 01:56:10;;;;;;;;;;;;;;;12.70;64.40;102289.38;1044448;28;1516;-68
2023/03/28 01:57:00;;;;;;;;;;;;;;;12.68;64.02;102288.56;1042347;28;1023;-67
2023/03/28 01:57:51;;;;;;;;;;;;;;;12.65;64.78;102286.91;1041610;28;637;-68
2023/03/28 01:58:41;;;;;;;;;;;;;;;12.65;64.16;102288.72;1041242;28;1388;-68
2023/03/28 01:59:32;;;;;;;;;;;;;;;12.67;64.17;102289.50;1041871;28;1424;-68
2023/03/28 02:00:22;;;;;;;;;;;;;;;12.68;64.75;102281.41;1043253;28;1459;-68
2023/03/28 02:01:12;;;;;;;;;;;;;;;12.68;63.75;102280.56;1043219;28;1957;-68
2023/03/28 02:02:03;;;;;;;;;;;;;;;12.67;64.24;102287.72;1041618;28;1554;-68
2023/03/28 02:02:54;;;;;;;;;;;;;;;12.63;64.10;102287.94;1044038;28;1355;-68
2023/03/28 02:03:44;;;;;;;;;;;;;;;12.62;64.60;102281.72;1041523;28;1274;-68
2023/03/28 02:04:35;;;;;;;;;;;;;;;12.62;63.95;102284.38;1042852;28;1483;-68
2023/03/28 02:05:25;;;;;;;;;;;;;;;12.63;64.85;102286.13;1041192;28;1397;-68
2023/03/28 02:06:16;;;;;;;;;;;;;;;12.63;64.02;102280.78;1042239;28;1580;-68
2023/03/28 02:07:07;;;;;;;;;;;;;;;12.61;64.93;102279.97;1042015;28;1343;-68
2023/03/28 02:07:58;;;;;;;;;;;;;;;12.60;64.59;102280.94;1041208;28;1392;-68
2023/03/28 02:08:48;;;;;;;;;;;;;;;12.59;64.98;102276.50;1040578;28;1376;-67
2023/03/28 02:09:39;;;;;;;;;;;;;;;12.59;64.09;102273.84;1043857;28;1448;-67
2023/03/28 02:10:29;;;;;;;;;;;;;;;12.60;63.92;102272.91;1043110;28;1436;-67
2023/03/28 02:11:20;;;;;;;;;;;;;;;12.56;64.43;102281.16;1041570;28;1323;-67
2023/03/28 02:12:10;;;;;;;;;;;;;;;12.52;64.24;102272.44;1044140;28;1615;-67
2023/03/28 02:13:00;;;;;;;;;;;;;;;12.55;64.14;102277.59;1041276;28;1364;-67
2023/03/28 02:13:51;;;;;;;;;;;;;;;12.58;64.40;102274.78;1041826;28;1031;-67
2023/03/28 02:14:42;;;;;;;;;;;;;;;12.58;64.22;102269.44;1045619;28;639;-67
2023/03/28 02:15:32;;;;;;;;;;;;;;;12.57;64.10;102272.19;1042700;28;1265;-67
2023/03/28 02:16:23;;;;;;;;;;;;;;;12.55;65.16;102279.41;1044771;28;1487;-67
2023/03/28 02:17:14;;;;;;;;;;;;;;;12.58;64.62;102277.47;1041992;28;995;-68
2023/03/28 02:18:05;;;;;;;;;;;;;;;12.60;64.61;102283.59;1040195;28;687;-67
2023/03/28 02:18:56;;;;;;;;;;;;;;;12.60;64.64;102288.94;1041979;28;1347;-68
2023/03/28 02:19:47;;;;;;;;;;;;;;;12.58;64.91;102282.81;1045555;28;750;-68
2023/03/28 02:20:37;;;;;;;;;;;;;;;12.59;64.17;102284.53;1043034;28;1033;-68
2023/03/28 02:21:28;;;;;;;;;;;;;;;12.60;64.23;102278.25;1041253;28;688;-68
2023/03/28 02:22:18;;;;;;;;;;;;;;;12.59;64.05;102273.84;1044182;28;904;-68
2023/03/28 02:23:09;;;;;;;;;;;;;;;12.60;64.16;102275.56;1044999;28;1356;-68
2023/03/28 02:23:59;;;;;;;;;;;;;;;12.57;64.98;102275.72;1040945;28;1424;-67
2023/03/28 02:24:50;;;;;;;;;;;;;;;12.58;64.24;102282.81;1043105;28;1396;-67
2023/03/28 02:25:41;;;;;;;;;;;;;;;12.55;64.34;102274.94;1042699;28;1475;-67
2023/03/28 02:26:32;;;;;;;;;;;;;;;12.55;64.21;102274.06;1042263;28;968;-67
2023/03/28 02:27:22;;;;;;;;;;;;;;;12.54;64.58;102275.03;1044441;28;566;-67
2023/03/28 02:28:13;;;;;;;;;;;;;;;12.56;64.75;102276.66;1041353;28;739;-67
2023/03/28 02:29:03;;;;;;;;;;;;;;;12.56;64.04;102274.00;1041099;28;1282;-68
2023/03/28 02:29:54;;;;;;;;;;;;;;;12.56;64.99;102276.66;1044514;28;1528;-68
2023/03/28 02:30:44;;;;;;;;;;;;;;;12.58;64.59;102272.09;1044193;28;1319;-67
2023/03/28 02:31:35;;;;;;;;;;;;;;;12.54;64.63;102273.19;1043144;28;1424;-68
2023/03/28 02:32:25;;;;;;;;;;;;;;;12.56;64.38;102276.66;1043169;28;1397;-68
2023/03/28 02:33:16;;;;;;;;;;;;;;;12.56;64.23;102279.34;1042331;28;1543;-68
2023/03/28 02:34:07;;;;;;;;;;;;;;;12.55;64.99;102280.28;1045309;28;675;-67
2023/03/28 02:34:57;;;;;;;;;;;;;;;12.54;65.16;102273.19;1043527;28;1258;-68
2023/03/28 02:35:47;;;;;;;;;;;;;;;12.53;64.43;102274.19;1044898;28;641;-67
2023/03/28 02:36:38;;;;;;;;;;;;;;;12.52;65.35;102275.97;1042953;28;1372;-67
2023/03/28 02:37:30;;;;;;;;;;;;;;;12.49;65.66;102272.59;1040748;28;1321;-67
2023/03/28 02:38:20;;;;;;;;;;;;;;;12.48;64.94;102270.84;1042821;28;1412;-67
2023/03/28 02:39:11;;;;;;;;;;;;;;;12.50;65.23;102277.00;1043410;28;1393;-67
2023/03/28 02:40:01;;;;;;;;;;;;;;;12.48;65.16;102274.41;1041354;28;1370;-67
2023/03/28 02:40:51;;;;;;;;;;;;;;;12.50;64.90;102272.50;1042650;28;1345;-67
2023/03/28 02:41:42;;;;;;;;;;;;;;;12.49;65.17;102272.59;1041486;28;1479;-68
2023/03/28 02:42:32;;;;;;;;;;;;;;;12.49;65.01;102270.78;1040159;28;1436;-68
2023/03/28 02:43:23;;;;;;;;;;;;;;;12.52;65.33;102280.47;1040654;28;729;-68
2023/03/28 02:44:13;;;;;;;;;;;;;;;12.52;65.28;102275.13;1041185;28;1436;-68
2023/03/28 02:45:04;;;;;;;;;;;;;;;12.53;65.11;102282.19;1045161;28;669;-67
2023/03/28 02:45:54;;;;;;;;;;;;;;;12.53;65.03;102276.84;1041375;28;1351;-68
2023/03/28 02:46:45;;;;;;;;;;;;;;;12.50;64.93;102274.31;1041424;28;1420;-68
2023/03/28 02:47:35;;;;;;;;;;;;;;;12.43;65.69;102270.22;1040969;28;1495;-68
2023/03/28 02:48:25;;;;;;;;;;;;;;;12.40;65.11;102275.72;1040761;28;1298;-68
2023/03/28 02:49:16;;;;;;;;;;;;;;;12.38;65.86;102280.25;1043828;28;1578;-68
2023/03/28 02:50:06;;;;;;;;;;;;;;;12.38;65.41;102278.44;1044724;28;1397;-67
2023/03/28 02:50:57;;;;;;;;;;;;;;;12.39;64.95;102279.31;1042792;28;1292;-67
2023/03/28 02:51:47;;;;;;;;;;;;;;;12.40;65.97;102281.91;1045222;28;1357;-67
2023/03/28 02:52:39;;;;;;;;;;;;;;;12.42;64.78;102280.03;1043651;28;1409;-67
2023/03/28 02:53:31;;;;;;;;;;;;;;;12.41;64.90;102278.31;1042631;28;1838;-67
2023/03/28 02:54:22;;;;;;;;;;;;;;;12.38;65.09;102277.59;1044296;28;2112;-66
2023/03/28 02:55:12;;;;;;;;;;;;;;;12.39;65.60;102290.00;1040719;28;645;-68
2023/03/28 02:56:03;;;;;;;;;;;;;;;12.42;64.77;102284.53;1041481;28;888;-66
2023/03/28 02:57:00;;;;;;;;;;;;;;;12.43;64.70;102283.56;1040812;28;670;-67
2023/03/28 02:57:50;;;;;;;;;;;;;;;12.40;65.41;102286.41;1044324;28;1541;-67
2023/03/28 02:58:40;;;;;;;;;;;;;;;12.39;64.94;102282.00;1040807;28;654;-67
2023/03/28 02:59:31;;;;;;;;;;;;;;;12.40;65.26;102281.06;1044898;28;646;-67
2023/03/28 03:00:21;;;;;;;;;;;;;;;12.42;65.59;102274.69;1045244;28;1162;-68
2023/03/28 03:01:13;;;;;;;;;;;;;;;12.41;64.88;102277.44;1041799;28;1907;-68
2023/03/28 03:02:04;;;;;;;;;;;;;;;12.42;65.66;102280.03;1041430;28;717;-67
2023/03/28 03:02:54;;;;;;;;;;;;;;;12.42;64.89;102281.84;1045444;28;1197;-67
2023/03/28 03:03:45;;;;;;;;;;;;;;;12.45;64.93;102273.69;1044324;28;729;-67
2023/03/28 03:04:36;;;;;;;;;;;;;;;12.47;65.11;102282.50;1040354;28;869;-67
2023/03/28 03:05:26;;;;;;;;;;;;;;;12.47;64.77;102277.16;1042764;28;1300;-67
2023/03/28 03:06:17;;;;;;;;;;;;;;;12.41;64.76;102275.63;1041637;28;677;-67
2023/03/28 03:07:08;;;;;;;;;;;;;;;12.40;64.75;102278.38;1043755;28;686;-67
2023/03/28 03:07:58;;;;;;;;;;;;;;;12.40;64.74;102275.72;1043775;28;1206;-68
2023/03/28 03:08:49;;;;;;;;;;;;;;;12.39;64.79;102276.66;1044238;28;1000;-67
2023/03/28 03:09:41;;;;;;;;;;;;;;;12.40;64.86;102275.72;1040096;28;643;-68
2023/03/28 03:10:31;;;;;;;;;;;;;;;12.37;65.87;102278.53;1041192;28;669;-67
2023/03/28 03:11:23;;;;;;;;;;;;;;;12.37;65.06;102273.19;1040503;28;698;-68
2023/03/28 03:12:14;;;;;;;;;;;;;;;12.35;64.99;102278.63;1044029;28;1043;-68
2023/03/28 03:13:05;;;;;;;;;;;;;;;12.33;65.25;102269.81;1045290;28;1060;-68
2023/03/28 03:13:56;;;;;;;;;;;;;;;12.33;65.74;102272.50;1041608;28;904;-68
2023/03/28 03:14:49;;;;;;;;;;;;;;;12.32;65.65;102277.91;1040633;28;763;-68
2023/03/28 03:15:40;;;;;;;;;;;;;;;12.27;65.32;102275.47;1040143;28;680;-67
2023/03/28 03:16:30;;;;;;;;;;;;;;;12.27;66.01;102274.59;1043026;28;1124;-68
2023/03/28 03:17:21;;;;;;;;;;;;;;;12.27;66.00;102278.13;1044755;28;739;-68
2023/03/28 03:18:11;;;;;;;;;;;;;;;12.27;65.24;102270.09;1044596;28;1083;-68
2023/03/28 03:19:02;;;;;;;;;;;;;;;12.25;65.22;102276.47;1043787;28;708;-68
2023/03/28 03:19:52;;;;;;;;;;;;;;;12.25;66.08;102272.00;1044449;28;948;-67
2023/03/28 03:20:44;;;;;;;;;;;;;;;12.27;65.76;102270.09;1045517;28;672;-68
2023/03/28 03:21:36;;;;;;;;;;;;;;;12.29;65.11;102262.03;1043985;28;718;-68
2023/03/28 03:22:26;;;;;;;;;;;;;;;12.30;65.54;102280.66;1043815;28;1135;-67
2023/03/28 03:23:17;;;;;;;;;;;;;;;12.31;65.85;102277.03;1045587;28;606;-68
2023/03/28 03:24:08;;;;;;;;;;;;;;;12.32;64.97;102272.56;1044439;28;1058;-67
2023/03/28 03:25:05;;;;;;;;;;;;;;;12.33;64.93;102269.81;1041229;28;692;-67
2023/03/28 03:25:55;;;;;;;;;;;;;;;12.27;65.85;102271.91;1039842;28;610;-68
2023/03/28 03:26:46;;;;;;;;;;;;;;;12.29;65.30;102272.72;1045181;28;1070;-68
2023/03/28 03:27:37;;;;;;;;;;;;;;;12.29;65.04;102270.91;1041549;28;1661;-68
2023/03/28 03:28:27;;;;;;;;;;;;;;;12.34;64.89;102271.56;1044335;28;645;-69
2023/03/28 03:29:18;;;;;;;;;;;;;;;12.35;64.74;102278.63;1041562;28;634;-67
2023/03/28 03:30:08;;;;;;;;;;;;;;;12.36;64.95;102279.50;1043538;28;1059;-67
2023/03/28 03:30:59;;;;;;;;;;;;;;;12.36;65.62;102274.97;1044845;28;692;-67
2023/03/28 03:31:50;;;;;;;;;;;;;;;12.36;65.11;102274.16;1043541;28;1142;-67
2023/03/28 03:32:42;;;;;;;;;;;;;;;12.35;64.96;102275.97;1045242;28;689;-67
2023/03/28 03:33:33;;;;;;;;;;;;;;;12.34;65.32;102270.69;1040705;28;661;-67
2023/03/28 03:34:25;;;;;;;;;;;;;;;12.34;65.68;102276.03;1044420;28;690;-67
2023/03/28 03:35:15;;;;;;;;;;;;;;;12.34;65.53;102270.69;1040148;28;673;-67
2023/03/28 03:36:05;;;;;;;;;;;;;;;12.32;65.65;102273.44;1039933;28;1011;-68
2023/03/28 03:36:56;;;;;;;;;;;;;;;12.33;65.62;102268.94;1040589;28;626;-67
2023/03/28 03:37:46;;;;;;;;;;;;;;;12.32;65.27;102272.56;1041751;28;664;-67
2023/03/28 03:38:37;;;;;;;;;;;;;;;12.32;64.87;102269.91;1041262;28;704;-68
2023/03/28 03:39:27;;;;;;;;;;;;;;;12.33;64.96;102268.94;1041642;28;637;-68
2023/03/28 03:40:18;;;;;;;;;;;;;;;12.34;64.92;102265.34;1045420;28;641;-68
2023/03/28 03:41:08;;;;;;;;;;;;;;;12.29;65.64;102262.03;1041446;28;1979;-67
2023/03/28 03:41:58;;;;;;;;;;;;;;;12.29;65.67;102260.22;1040488;28;1232;-67
2023/03/28 03:42:49;;;;;;;;;;;;;;;12.32;65.09;102265.41;1045142;28;712;-68
2023/03/28 03:43:40;;;;;;;;;;;;;;;12.27;65.06;102264.75;1039693;28;647;-68
2023/03/28 03:44:30;;;;;;;;;;;;;;;12.29;65.63;102264.69;1045054;28;644;-68
2023/03/28 03:45:21;;;;;;;;;;;;;;;12.30;65.49;102263.75;1041481;28;665;-68
2023/03/28 03:46:11;;;;;;;;;;;;;;;12.28;65.04;102265.63;1044748;28;616;-68
2023/03/28 03:47:02;;;;;;;;;;;;;;;12.28;65.01;102260.28;1043823;28;1279;-68
2023/03/28 03:47:52;;;;;;;;;;;;;;;12.29;65.67;102260.22;1045333;28;731;-68
2023/03/28 03:48:43;;;;;;;;;;;;;;;12.27;65.06;102256.75;1043887;28;671;-68
2023/03/28 03:49:33;;;;;;;;;;;;;;;12.24;65.60;102266.72;1044734;28;657;-68
2023/03/28 03:50:24;;;;;;;;;;;;;;;12.27;65.02;102258.56;1044498;28;689;-68
2023/03/28 03:51:14;;;;;;;;;;;;;;;12.31;65.08;102270.84;1044635;28;711;-68
2023/03/28 03:52:04;;;;;;;;;;;;;;;12.29;65.73;102262.03;1044669;28;813;-68
2023/03/28 03:52:55;;;;;;;;;;;;;;;12.28;65.21;102268.31;1044650;28;1218;-68
2023/03/28 03:53:49;;;;;;;;;;;;;;;12.23;65.88;102263.19;1041790;28;700;-68
2023/03/28 03:54:39;;;;;;;;;;;;;;;12.23;65.50;102263.19;1039446;28;635;-68
2023/03/28 03:55:31;;;;;;;;;;;;;;;12.28;65.19;102265.63;1041558;28;1055;-68
2023/03/28 03:56:22;;;;;;;;;;;;;;;12.28;65.03;102266.50;1039928;28;646;-68
2023/03/28 03:57:13;;;;;;;;;;;;;;;12.29;64.89;102262.03;1040267;28;1411;-68
2023/03/28 03:58:03;;;;;;;;;;;;;;;12.23;65.42;102262.31;1041464;28;964;-68
2023/03/28 03:58:54;;;;;;;;;;;;;;;12.24;65.25;102266.72;1044668;28;613;-68
2023/03/28 03:59:45;;;;;;;;;;;;;;;12.23;65.85;102263.19;1041089;28;739;-68
2023/03/28 04:00:36;;;;;;;;;;;;;;;12.24;64.87;102262.25;1040179;28;684;-68
2023/03/28 04:01:28;;;;;;;;;;;;;;;12.24;64.95;102261.38;1041799;28;1966;-67
2023/03/28 04:02:19;;;;;;;;;;;;;;;12.22;65.11;102264.13;1045541;28;664;-68
2023/03/28 04:03:09;;;;;;;;;;;;;;;12.18;65.22;102260.72;1043624;28;1265;-67
2023/03/28 04:04:00;;;;;;;;;;;;;;;12.23;65.62;102259.63;1045201;28;684;-68
2023/03/28 04:04:52;;;;;;;;;;;;;;;12.20;65.40;102263.31;1043612;28;659;-67
2023/03/28 04:05:42;;;;;;;;;;;;;;;12.20;65.87;102265.13;1045268;28;709;-67
2023/03/28 04:06:33;;;;;;;;;;;;;;;12.22;65.51;102264.13;1040918;28;1202;-67
2023/03/28 04:07:23;;;;;;;;;;;;;;;12.20;65.07;102265.13;1041084;28;736;-68
2023/03/28 04:08:14;;;;;;;;;;;;;;;12.20;65.72;102265.13;1045786;28;1184;-67
2023/03/28 04:09:04;;;;;;;;;;;;;;;12.19;66.01;102266.94;1045902;28;676;-66
2023/03/28 04:09:55;;;;;;;;;;;;;;;12.18;66.08;102258.03;1042847;28;1111;-66
2023/03/28 04:10:46;;;;;;;;;;;;;;;12.18;65.60;102256.34;1045508;28;624;-67
2023/03/28 04:11:37;;;;;;;;;;;;;;;12.17;66.13;102260.81;1041830;28;1118;-66
2023/03/28 04:12:27;;;;;;;;;;;;;;;12.16;65.89;102259.09;1044739;28;1358;-68
2023/03/28 04:13:17;;;;;;;;;;;;;;;12.15;65.40;102263.56;1041709;28;650;-68
2023/03/28 04:14:08;;;;;;;;;;;;;;;12.15;65.21;102266.25;1042161;28;1158;-68
2023/03/28 04:14:58;;;;;;;;;;;;;;;12.11;65.63;102263.78;1044233;28;764;-67
2023/03/28 04:15:49;;;;;;;;;;;;;;;12.11;66.26;102263.78;1045273;28;1039;-67
2023/03/28 04:16:40;;;;;;;;;;;;;;;12.10;66.13;102268.25;1046052;28;829;-67
2023/03/28 04:17:33;;;;;;;;;;;;;;;12.15;66.01;102263.56;1045397;28;976;-67
2023/03/28 04:18:24;;;;;;;;;;;;;;;12.12;65.37;102265.53;1045471;28;680;-67
2023/03/28 04:19:15;;;;;;;;;;;;;;;12.12;65.29;102265.53;1045563;28;1158;-67
2023/03/28 04:20:10;;;;;;;;;;;;;;;12.13;65.99;102261.91;1044839;28;651;-68
2023/03/28 04:21:01;;;;;;;;;;;;;;;12.14;65.10;102264.50;1040383;28;669;-68
2023/03/28 04:21:51;;;;;;;;;;;;;;;12.16;65.53;102267.09;1040488;28;1234;-66
2023/03/28 04:22:42;;;;;;;;;;;;;;;12.17;65.24;102268.84;1044207;28;613;-67
2023/03/28 04:23:37;;;;;;;;;;;;;;;12.18;65.54;102270.56;1045355;28;1146;-68
2023/03/28 04:24:27;;;;;;;;;;;;;;;12.18;65.64;102267.03;1041946;28;634;-67
2023/03/28 04:25:18;;;;;;;;;;;;;;;12.17;65.83;102258.16;1044087;28;1214;-67
2023/03/28 04:26:08;;;;;;;;;;;;;;;12.16;65.43;102261.75;1046957;28;712;-68